sensor_id;sensor_type;location;lat;lon;timestamp;P1;durP1;ratioP1;P2;durP2;ratioP2
908;SDS011;441;51.192;6.788;2023-03-03T00:01:32;14.30;;;13.67;;
908;SDS011;441;51.192;6.788;2023-03-03T00:03:59;15.40;;;14.20;;
908;SDS011;441;51.192;6.788;2023-03-03T00:06:26;13.40;;;12.73;;
908;SDS011;441;51.192;6.788;2023-03-03T00:08:54;15.33;;;14.17;;
908;SDS011;441;51.192;6.788;2023-03-03T00:11:23;14.53;;;13.63;;
908;SDS011;441;51.192;6.788;2023-03-03T00:13:50;14.43;;;13.73;;
908;SDS011;441;51.192;6.788;2023-03-03T00:16:23;14.73;;;14.10;;
908;SDS011;441;51.192;6.788;2023-03-03T00:18:51;14.77;;;14.07;;
908;SDS011;441;51.192;6.788;2023-03-03T00:21:23;14.30;;;13.70;;
908;SDS011;441;51.192;6.788;2023-03-03T00:23:53;14.50;;;13.80;;
908;SDS011;441;51.192;6.788;2023-03-03T00:26:25;15.50;;;14.60;;
908;SDS011;441;51.192;6.788;2023-03-03T00:28:58;14.27;;;13.57;;
908;SDS011;441;51.192;6.788;2023-03-03T00:31:27;14.67;;;13.93;;
908;SDS011;441;51.192;6.788;2023-03-03T00:33:57;13.33;;;12.83;;
908;SDS011;441;51.192;6.788;2023-03-03T00:36:30;13.97;;;13.47;;
908;SDS011;441;51.192;6.788;2023-03-03T00:39:10;15.23;;;14.20;;
908;SDS011;441;51.192;6.788;2023-03-03T00:41:45;14.27;;;13.67;;
908;SDS011;441;51.192;6.788;2023-03-03T00:47:28;14.83;;;14.10;;
908;SDS011;441;51.192;6.788;2023-03-03T00:50:11;14.27;;;13.67;;
908;SDS011;441;51.192;6.788;2023-03-03T00:52:57;14.17;;;13.57;;
908;SDS011;441;51.192;6.788;2023-03-03T00:55:32;14.40;;;13.70;;
908;SDS011;441;51.192;6.788;2023-03-03T00:58:01;15.13;;;14.43;;
908;SDS011;441;51.192;6.788;2023-03-03T01:00:28;14.13;;;13.43;;
908;SDS011;441;51.192;6.788;2023-03-03T01:02:55;14.73;;;13.90;;
908;SDS011;441;51.192;6.788;2023-03-03T01:05:25;15.90;;;15.10;;
908;SDS011;441;51.192;6.788;2023-03-03T01:07:52;16.20;;;15.40;;
908;SDS011;441;51.192;6.788;2023-03-03T01:10:18;14.50;;;13.80;;
908;SDS011;441;51.192;6.788;2023-03-03T01:12:45;15.57;;;14.67;;
908;SDS011;441;51.192;6.788;2023-03-03T01:15:14;15.20;;;14.50;;
908;SDS011;441;51.192;6.788;2023-03-03T01:17:41;15.40;;;14.60;;
908;SDS011;441;51.192;6.788;2023-03-03T01:20:09;16.60;;;15.70;;
908;SDS011;441;51.192;6.788;2023-03-03T01:22:38;15.50;;;14.57;;
908;SDS011;441;51.192;6.788;2023-03-03T01:25:05;16.53;;;15.63;;
908;SDS011;441;51.192;6.788;2023-03-03T01:27:33;16.53;;;15.63;;
908;SDS011;441;51.192;6.788;2023-03-03T01:30:01;15.93;;;14.93;;
908;SDS011;441;51.192;6.788;2023-03-03T01:32:30;16.70;;;15.70;;
908;SDS011;441;51.192;6.788;2023-03-03T01:34:57;14.30;;;13.60;;
908;SDS011;441;51.192;6.788;2023-03-03T01:37:24;15.60;;;14.63;;
908;SDS011;441;51.192;6.788;2023-03-03T01:39:51;15.73;;;14.93;;
908;SDS011;441;51.192;6.788;2023-03-03T01:42:18;15.40;;;14.60;;
908;SDS011;441;51.192;6.788;2023-03-03T01:44:46;15.63;;;14.73;;
908;SDS011;441;51.192;6.788;2023-03-03T01:47:14;15.73;;;14.90;;
908;SDS011;441;51.192;6.788;2023-03-03T01:49:45;16.70;;;15.80;;
908;SDS011;441;51.192;6.788;2023-03-03T01:52:19;15.87;;;14.97;;
908;SDS011;441;51.192;6.788;2023-03-03T01:54:52;15.83;;;14.87;;
908;SDS011;441;51.192;6.788;2023-03-03T01:57:22;15.67;;;14.67;;
908;SDS011;441;51.192;6.788;2023-03-03T01:59:53;15.43;;;14.53;;
908;SDS011;441;51.192;6.788;2023-03-03T02:02:22;16.40;;;15.40;;
908;SDS011;441;51.192;6.788;2023-03-03T02:04:54;16.97;;;16.03;;
908;SDS011;441;51.192;6.788;2023-03-03T02:07:22;15.60;;;14.70;;
908;SDS011;441;51.192;6.788;2023-03-03T02:09:54;16.50;;;15.40;;
908;SDS011;441;51.192;6.788;2023-03-03T02:12:26;16.40;;;15.40;;
908;SDS011;441;51.192;6.788;2023-03-03T02:14:57;18.03;;;16.83;;
908;SDS011;441;51.192;6.788;2023-03-03T02:17:24;16.07;;;15.07;;
908;SDS011;441;51.192;6.788;2023-03-03T02:19:51;16.33;;;15.33;;
908;SDS011;441;51.192;6.788;2023-03-03T02:22:29;16.43;;;15.33;;
908;SDS011;441;51.192;6.788;2023-03-03T02:25:03;16.23;;;15.10;;
908;SDS011;441;51.192;6.788;2023-03-03T02:27:34;16.13;;;15.27;;
908;SDS011;441;51.192;6.788;2023-03-03T02:30:10;15.27;;;14.47;;
908;SDS011;441;51.192;6.788;2023-03-03T02:32:40;17.37;;;16.37;;
908;SDS011;441;51.192;6.788;2023-03-03T02:37:58;16.23;;;15.23;;
908;SDS011;441;51.192;6.788;2023-03-03T02:40:35;16.70;;;15.33;;
908;SDS011;441;51.192;6.788;2023-03-03T02:43:06;15.90;;;15.10;;
908;SDS011;441;51.192;6.788;2023-03-03T02:45:40;15.43;;;14.43;;
908;SDS011;441;51.192;6.788;2023-03-03T02:48:08;17.27;;;16.17;;
908;SDS011;441;51.192;6.788;2023-03-03T02:50:34;14.60;;;13.90;;
908;SDS011;441;51.192;6.788;2023-03-03T02:53:02;16.80;;;15.70;;
908;SDS011;441;51.192;6.788;2023-03-03T02:55:28;16.73;;;15.63;;
908;SDS011;441;51.192;6.788;2023-03-03T02:57:56;15.80;;;15.00;;
908;SDS011;441;51.192;6.788;2023-03-03T03:00:24;15.83;;;14.93;;
908;SDS011;441;51.192;6.788;2023-03-03T03:02:51;15.67;;;14.87;;
908;SDS011;441;51.192;6.788;2023-03-03T03:05:17;16.60;;;15.70;;
908;SDS011;441;51.192;6.788;2023-03-03T03:07:44;16.00;;;15.10;;
908;SDS011;441;51.192;6.788;2023-03-03T03:10:11;16.10;;;15.20;;
908;SDS011;441;51.192;6.788;2023-03-03T03:12:38;15.53;;;14.60;;
908;SDS011;441;51.192;6.788;2023-03-03T03:15:05;16.10;;;15.20;;
908;SDS011;441;51.192;6.788;2023-03-03T03:17:35;17.07;;;16.13;;
908;SDS011;441;51.192;6.788;2023-03-03T03:20:03;17.00;;;16.00;;
908;SDS011;441;51.192;6.788;2023-03-03T03:22:30;16.80;;;15.87;;
908;SDS011;441;51.192;6.788;2023-03-03T03:24:57;15.63;;;14.73;;
908;SDS011;441;51.192;6.788;2023-03-03T03:27:24;17.03;;;16.13;;
908;SDS011;441;51.192;6.788;2023-03-03T03:29:51;15.63;;;14.77;;
908;SDS011;441;51.192;6.788;2023-03-03T03:32:18;17.50;;;16.40;;
908;SDS011;441;51.192;6.788;2023-03-03T03:34:46;16.10;;;15.20;;
908;SDS011;441;51.192;6.788;2023-03-03T03:37:13;16.43;;;15.43;;
908;SDS011;441;51.192;6.788;2023-03-03T03:39:40;15.67;;;14.77;;
908;SDS011;441;51.192;6.788;2023-03-03T03:42:07;15.60;;;14.70;;
908;SDS011;441;51.192;6.788;2023-03-03T03:44:35;17.13;;;16.13;;
908;SDS011;441;51.192;6.788;2023-03-03T03:47:02;15.77;;;14.80;;
908;SDS011;441;51.192;6.788;2023-03-03T03:49:29;16.90;;;15.70;;
908;SDS011;441;51.192;6.788;2023-03-03T03:51:57;15.20;;;14.37;;
908;SDS011;441;51.192;6.788;2023-03-03T03:54:24;14.40;;;13.60;;
908;SDS011;441;51.192;6.788;2023-03-03T03:56:51;17.27;;;16.10;;
908;SDS011;441;51.192;6.788;2023-03-03T03:59:18;17.23;;;16.10;;
908;SDS011;441;51.192;6.788;2023-03-03T04:01:45;16.17;;;15.17;;
908;SDS011;441;51.192;6.788;2023-03-03T04:04:14;16.87;;;15.87;;
908;SDS011;441;51.192;6.788;2023-03-03T04:06:41;16.37;;;15.37;;
908;SDS011;441;51.192;6.788;2023-03-03T04:09:09;15.60;;;14.80;;
908;SDS011;441;51.192;6.788;2023-03-03T04:11:36;16.17;;;15.17;;
908;SDS011;441;51.192;6.788;2023-03-03T04:14:03;16.97;;;15.83;;
908;SDS011;441;51.192;6.788;2023-03-03T04:16:30;16.90;;;15.80;;
908;SDS011;441;51.192;6.788;2023-03-03T04:18:57;16.10;;;15.00;;
908;SDS011;441;51.192;6.788;2023-03-03T04:21:24;17.53;;;16.40;;
908;SDS011;441;51.192;6.788;2023-03-03T04:23:52;16.57;;;15.60;;
908;SDS011;441;51.192;6.788;2023-03-03T04:26:20;16.77;;;15.60;;
908;SDS011;441;51.192;6.788;2023-03-03T04:28:47;16.10;;;15.20;;
908;SDS011;441;51.192;6.788;2023-03-03T04:31:14;15.77;;;14.83;;
908;SDS011;441;51.192;6.788;2023-03-03T04:33:41;18.30;;;16.90;;
908;SDS011;441;51.192;6.788;2023-03-03T04:36:08;16.83;;;15.63;;
908;SDS011;441;51.192;6.788;2023-03-03T04:38:35;17.60;;;16.50;;
908;SDS011;441;51.192;6.788;2023-03-03T04:41:02;17.67;;;16.57;;
908;SDS011;441;51.192;6.788;2023-03-03T04:43:30;16.40;;;15.40;;
908;SDS011;441;51.192;6.788;2023-03-03T04:45:57;16.37;;;15.27;;
908;SDS011;441;51.192;6.788;2023-03-03T04:48:24;16.50;;;15.60;;
908;SDS011;441;51.192;6.788;2023-03-03T04:50:51;15.40;;;14.40;;
908;SDS011;441;51.192;6.788;2023-03-03T04:53:18;17.00;;;15.80;;
908;SDS011;441;51.192;6.788;2023-03-03T04:55:45;18.20;;;17.00;;
908;SDS011;441;51.192;6.788;2023-03-03T04:58:12;17.80;;;16.50;;
908;SDS011;441;51.192;6.788;2023-03-03T05:00:41;18.57;;;17.17;;
908;SDS011;441;51.192;6.788;2023-03-03T05:03:09;16.73;;;15.77;;
908;SDS011;441;51.192;6.788;2023-03-03T05:05:37;17.07;;;15.60;;
908;SDS011;441;51.192;6.788;2023-03-03T05:08:04;16.43;;;15.47;;
908;SDS011;441;51.192;6.788;2023-03-03T05:10:31;16.43;;;15.33;;
908;SDS011;441;51.192;6.788;2023-03-03T05:12:58;17.60;;;16.30;;
908;SDS011;441;51.192;6.788;2023-03-03T05:15:25;19.70;;;18.10;;
908;SDS011;441;51.192;6.788;2023-03-03T05:17:53;19.67;;;17.73;;
908;SDS011;441;51.192;6.788;2023-03-03T05:20:21;18.70;;;17.27;;
908;SDS011;441;51.192;6.788;2023-03-03T05:22:48;18.03;;;16.73;;
908;SDS011;441;51.192;6.788;2023-03-03T05:25:15;18.47;;;16.63;;
908;SDS011;441;51.192;6.788;2023-03-03T05:27:42;17.27;;;16.00;;
908;SDS011;441;51.192;6.788;2023-03-03T05:30:10;17.30;;;16.20;;
908;SDS011;441;51.192;6.788;2023-03-03T05:32:38;18.57;;;17.00;;
908;SDS011;441;51.192;6.788;2023-03-03T05:35:06;18.20;;;16.63;;
908;SDS011;441;51.192;6.788;2023-03-03T05:37:34;18.87;;;17.30;;
908;SDS011;441;51.192;6.788;2023-03-03T05:40:01;19.27;;;17.67;;
908;SDS011;441;51.192;6.788;2023-03-03T05:42:28;22.07;;;19.70;;
908;SDS011;441;51.192;6.788;2023-03-03T05:44:55;22.47;;;20.03;;
908;SDS011;441;51.192;6.788;2023-03-03T05:47:22;22.87;;;20.47;;
908;SDS011;441;51.192;6.788;2023-03-03T05:49:49;27.20;;;22.23;;
908;SDS011;441;51.192;6.788;2023-03-03T05:52:17;22.53;;;20.47;;
908;SDS011;441;51.192;6.788;2023-03-03T05:54:44;23.77;;;19.97;;
908;SDS011;441;51.192;6.788;2023-03-03T05:57:11;20.57;;;18.50;;
908;SDS011;441;51.192;6.788;2023-03-03T05:59:38;19.77;;;17.77;;
908;SDS011;441;51.192;6.788;2023-03-03T06:02:05;20.50;;;18.33;;
908;SDS011;441;51.192;6.788;2023-03-03T06:04:32;21.53;;;17.47;;
908;SDS011;441;51.192;6.788;2023-03-03T06:06:59;18.67;;;17.07;;
908;SDS011;441;51.192;6.788;2023-03-03T06:09:27;18.43;;;16.70;;
908;SDS011;441;51.192;6.788;2023-03-03T06:11:54;20.40;;;18.50;;
908;SDS011;441;51.192;6.788;2023-03-03T06:14:21;18.53;;;16.90;;
908;SDS011;441;51.192;6.788;2023-03-03T06:16:48;19.90;;;18.17;;
908;SDS011;441;51.192;6.788;2023-03-03T06:19:15;20.63;;;18.67;;
908;SDS011;441;51.192;6.788;2023-03-03T06:21:42;19.50;;;17.40;;
908;SDS011;441;51.192;6.788;2023-03-03T06:24:08;20.13;;;18.13;;
908;SDS011;441;51.192;6.788;2023-03-03T06:26:37;19.70;;;17.70;;
908;SDS011;441;51.192;6.788;2023-03-03T06:29:04;19.50;;;17.73;;
908;SDS011;441;51.192;6.788;2023-03-03T06:31:31;19.10;;;17.03;;
908;SDS011;441;51.192;6.788;2023-03-03T06:33:58;18.67;;;17.07;;
908;SDS011;441;51.192;6.788;2023-03-03T06:36:25;20.27;;;18.37;;
908;SDS011;441;51.192;6.788;2023-03-03T06:38:52;17.83;;;16.27;;
908;SDS011;441;51.192;6.788;2023-03-03T06:41:19;20.30;;;18.60;;
908;SDS011;441;51.192;6.788;2023-03-03T06:43:47;19.00;;;17.50;;
908;SDS011;441;51.192;6.788;2023-03-03T06:46:14;18.50;;;17.20;;
908;SDS011;441;51.192;6.788;2023-03-03T06:48:41;18.40;;;16.40;;
908;SDS011;441;51.192;6.788;2023-03-03T06:51:13;20.07;;;18.30;;
908;SDS011;441;51.192;6.788;2023-03-03T06:53:47;16.80;;;15.00;;
908;SDS011;441;51.192;6.788;2023-03-03T06:56:15;19.07;;;17.57;;
908;SDS011;441;51.192;6.788;2023-03-03T06:58:43;17.50;;;16.30;;
908;SDS011;441;51.192;6.788;2023-03-03T07:01:12;18.83;;;17.07;;
908;SDS011;441;51.192;6.788;2023-03-03T07:03:42;18.63;;;16.80;;
908;SDS011;441;51.192;6.788;2023-03-03T07:06:13;18.30;;;16.57;;
908;SDS011;441;51.192;6.788;2023-03-03T07:08:45;15.87;;;14.60;;
908;SDS011;441;51.192;6.788;2023-03-03T07:11:14;17.37;;;15.97;;
908;SDS011;441;51.192;6.788;2023-03-03T07:13:44;17.77;;;16.53;;
908;SDS011;441;51.192;6.788;2023-03-03T07:16:14;17.57;;;16.17;;
908;SDS011;441;51.192;6.788;2023-03-03T07:18:44;18.33;;;16.83;;
908;SDS011;441;51.192;6.788;2023-03-03T07:21:16;17.40;;;16.23;;
908;SDS011;441;51.192;6.788;2023-03-03T07:23:45;18.57;;;16.80;;
908;SDS011;441;51.192;6.788;2023-03-03T07:26:13;16.87;;;15.57;;
908;SDS011;441;51.192;6.788;2023-03-03T07:28:42;17.40;;;16.07;;
908;SDS011;441;51.192;6.788;2023-03-03T07:31:26;18.30;;;16.80;;
908;SDS011;441;51.192;6.788;2023-03-03T07:33:55;18.77;;;16.97;;
908;SDS011;441;51.192;6.788;2023-03-03T07:36:25;16.90;;;15.37;;
908;SDS011;441;51.192;6.788;2023-03-03T07:38:54;18.47;;;16.87;;
908;SDS011;441;51.192;6.788;2023-03-03T07:41:24;17.87;;;16.20;;
908;SDS011;441;51.192;6.788;2023-03-03T07:43:52;18.80;;;17.10;;
908;SDS011;441;51.192;6.788;2023-03-03T07:46:28;18.10;;;16.50;;
908;SDS011;441;51.192;6.788;2023-03-03T07:49:00;18.43;;;17.13;;
908;SDS011;441;51.192;6.788;2023-03-03T07:51:36;16.77;;;15.53;;
908;SDS011;441;51.192;6.788;2023-03-03T07:54:13;17.70;;;16.40;;
908;SDS011;441;51.192;6.788;2023-03-03T07:56:54;20.20;;;18.60;;
908;SDS011;441;51.192;6.788;2023-03-03T07:59:23;19.13;;;17.57;;
908;SDS011;441;51.192;6.788;2023-03-03T08:01:52;18.90;;;17.10;;
908;SDS011;441;51.192;6.788;2023-03-03T08:04:23;18.10;;;16.60;;
908;SDS011;441;51.192;6.788;2023-03-03T08:06:54;17.37;;;15.93;;
908;SDS011;441;51.192;6.788;2023-03-03T08:15:21;16.30;;;15.00;;
908;SDS011;441;51.192;6.788;2023-03-03T08:17:51;17.23;;;15.53;;
908;SDS011;441;51.192;6.788;2023-03-03T08:23:17;17.53;;;16.00;;
908;SDS011;441;51.192;6.788;2023-03-03T08:25:46;15.37;;;14.17;;
908;SDS011;441;51.192;6.788;2023-03-03T08:28:14;16.60;;;15.30;;
908;SDS011;441;51.192;6.788;2023-03-03T08:30:42;13.67;;;12.70;;
908;SDS011;441;51.192;6.788;2023-03-03T08:33:11;15.80;;;14.40;;
908;SDS011;441;51.192;6.788;2023-03-03T08:35:38;14.33;;;13.23;;
908;SDS011;441;51.192;6.788;2023-03-03T08:38:05;15.80;;;14.10;;
908;SDS011;441;51.192;6.788;2023-03-03T08:40:33;15.50;;;14.17;;
908;SDS011;441;51.192;6.788;2023-03-03T08:43:00;14.83;;;13.63;;
908;SDS011;441;51.192;6.788;2023-03-03T08:45:27;15.10;;;14.00;;
908;SDS011;441;51.192;6.788;2023-03-03T08:47:54;13.27;;;12.47;;
908;SDS011;441;51.192;6.788;2023-03-03T08:50:22;13.70;;;12.50;;
908;SDS011;441;51.192;6.788;2023-03-03T08:52:49;15.90;;;14.63;;
908;SDS011;441;51.192;6.788;2023-03-03T08:55:16;15.73;;;14.60;;
908;SDS011;441;51.192;6.788;2023-03-03T08:57:43;15.43;;;14.23;;
908;SDS011;441;51.192;6.788;2023-03-03T09:00:11;15.77;;;14.50;;
908;SDS011;441;51.192;6.788;2023-03-03T09:02:40;15.20;;;13.90;;
908;SDS011;441;51.192;6.788;2023-03-03T09:05:08;15.50;;;14.10;;
908;SDS011;441;51.192;6.788;2023-03-03T09:07:37;13.23;;;12.30;;
908;SDS011;441;51.192;6.788;2023-03-03T09:10:05;14.43;;;13.30;;
908;SDS011;441;51.192;6.788;2023-03-03T09:12:33;15.40;;;14.10;;
908;SDS011;441;51.192;6.788;2023-03-03T09:15:09;14.63;;;13.63;;
908;SDS011;441;51.192;6.788;2023-03-03T09:17:49;14.63;;;13.50;;
908;SDS011;441;51.192;6.788;2023-03-03T09:20:26;16.03;;;14.60;;
908;SDS011;441;51.192;6.788;2023-03-03T09:23:20;17.27;;;15.73;;
908;SDS011;441;51.192;6.788;2023-03-03T09:25:58;14.17;;;13.00;;
908;SDS011;441;51.192;6.788;2023-03-03T09:28:42;14.53;;;13.13;;
908;SDS011;441;51.192;6.788;2023-03-03T09:31:16;13.27;;;12.37;;
908;SDS011;441;51.192;6.788;2023-03-03T09:33:50;14.60;;;13.50;;
908;SDS011;441;51.192;6.788;2023-03-03T09:36:20;15.83;;;14.53;;
908;SDS011;441;51.192;6.788;2023-03-03T09:38:52;14.20;;;13.00;;
908;SDS011;441;51.192;6.788;2023-03-03T09:44:32;14.40;;;13.20;;
908;SDS011;441;51.192;6.788;2023-03-03T09:47:26;14.40;;;13.20;;
908;SDS011;441;51.192;6.788;2023-03-03T09:50:06;14.87;;;13.80;;
908;SDS011;441;51.192;6.788;2023-03-03T09:52:44;15.83;;;14.43;;
908;SDS011;441;51.192;6.788;2023-03-03T09:55:25;15.53;;;14.33;;
908;SDS011;441;51.192;6.788;2023-03-03T09:58:05;14.23;;;13.07;;
908;SDS011;441;51.192;6.788;2023-03-03T10:00:44;14.80;;;13.33;;
908;SDS011;441;51.192;6.788;2023-03-03T10:06:21;14.60;;;13.40;;
908;SDS011;441;51.192;6.788;2023-03-03T10:08:56;15.20;;;13.97;;
908;SDS011;441;51.192;6.788;2023-03-03T10:11:37;13.40;;;12.47;;
908;SDS011;441;51.192;6.788;2023-03-03T10:14:12;15.07;;;13.97;;
908;SDS011;441;51.192;6.788;2023-03-03T10:16:58;14.27;;;13.17;;
908;SDS011;441;51.192;6.788;2023-03-03T10:19:46;13.10;;;12.20;;
908;SDS011;441;51.192;6.788;2023-03-03T10:22:27;15.83;;;14.50;;
908;SDS011;441;51.192;6.788;2023-03-03T10:25:02;15.33;;;13.90;;
908;SDS011;441;51.192;6.788;2023-03-03T10:27:40;15.13;;;13.83;;
908;SDS011;441;51.192;6.788;2023-03-03T10:30:17;14.57;;;13.47;;
908;SDS011;441;51.192;6.788;2023-03-03T10:32:53;14.20;;;13.10;;
908;SDS011;441;51.192;6.788;2023-03-03T10:38:14;15.20;;;14.00;;
908;SDS011;441;51.192;6.788;2023-03-03T10:40:52;15.17;;;13.97;;
908;SDS011;441;51.192;6.788;2023-03-03T10:43:31;14.67;;;13.57;;
908;SDS011;441;51.192;6.788;2023-03-03T10:49:16;14.03;;;12.93;;
908;SDS011;441;51.192;6.788;2023-03-03T10:51:55;15.27;;;13.93;;
908;SDS011;441;51.192;6.788;2023-03-03T10:54:39;13.37;;;12.57;;
908;SDS011;441;51.192;6.788;2023-03-03T10:57:16;13.53;;;12.43;;
908;SDS011;441;51.192;6.788;2023-03-03T10:59:55;14.10;;;12.77;;
908;SDS011;441;51.192;6.788;2023-03-03T11:02:31;15.93;;;14.57;;
908;SDS011;441;51.192;6.788;2023-03-03T11:05:13;14.60;;;13.63;;
908;SDS011;441;51.192;6.788;2023-03-03T11:07:48;14.77;;;13.63;;
908;SDS011;441;51.192;6.788;2023-03-03T11:10:23;15.53;;;14.30;;
908;SDS011;441;51.192;6.788;2023-03-03T11:13:07;14.80;;;13.80;;
908;SDS011;441;51.192;6.788;2023-03-03T11:15:46;15.23;;;13.93;;
908;SDS011;441;51.192;6.788;2023-03-03T11:18:24;14.37;;;13.20;;
908;SDS011;441;51.192;6.788;2023-03-03T11:21:03;13.70;;;12.77;;
908;SDS011;441;51.192;6.788;2023-03-03T11:23:41;15.03;;;13.70;;
908;SDS011;441;51.192;6.788;2023-03-03T11:29:23;15.87;;;14.77;;
908;SDS011;441;51.192;6.788;2023-03-03T11:31:59;15.30;;;13.97;;
908;SDS011;441;51.192;6.788;2023-03-03T11:34:40;15.00;;;13.97;;
908;SDS011;441;51.192;6.788;2023-03-03T11:37:16;15.17;;;14.10;;
908;SDS011;441;51.192;6.788;2023-03-03T11:39:49;14.63;;;13.60;;
908;SDS011;441;51.192;6.788;2023-03-03T11:42:22;16.23;;;14.73;;
908;SDS011;441;51.192;6.788;2023-03-03T11:44:55;15.77;;;14.50;;
908;SDS011;441;51.192;6.788;2023-03-03T11:47:28;14.13;;;13.13;;
908;SDS011;441;51.192;6.788;2023-03-03T11:50:03;17.20;;;15.90;;
908;SDS011;441;51.192;6.788;2023-03-03T11:52:36;15.10;;;13.90;;
908;SDS011;441;51.192;6.788;2023-03-03T11:55:11;14.77;;;13.47;;
908;SDS011;441;51.192;6.788;2023-03-03T11:57:43;14.50;;;13.40;;
908;SDS011;441;51.192;6.788;2023-03-03T12:00:18;15.40;;;14.10;;
908;SDS011;441;51.192;6.788;2023-03-03T12:05:55;14.73;;;13.60;;
908;SDS011;441;51.192;6.788;2023-03-03T12:08:35;14.33;;;13.10;;
908;SDS011;441;51.192;6.788;2023-03-03T12:11:10;14.37;;;13.07;;
908;SDS011;441;51.192;6.788;2023-03-03T12:13:49;14.70;;;13.50;;
908;SDS011;441;51.192;6.788;2023-03-03T12:16:24;14.27;;;13.20;;
908;SDS011;441;51.192;6.788;2023-03-03T12:19:08;14.03;;;12.87;;
908;SDS011;441;51.192;6.788;2023-03-03T12:21:54;13.37;;;12.33;;
908;SDS011;441;51.192;6.788;2023-03-03T12:24:44;14.90;;;13.50;;
908;SDS011;441;51.192;6.788;2023-03-03T12:27:22;15.70;;;14.50;;
908;SDS011;441;51.192;6.788;2023-03-03T12:29:58;16.10;;;14.80;;
908;SDS011;441;51.192;6.788;2023-03-03T12:32:42;15.47;;;14.37;;
908;SDS011;441;51.192;6.788;2023-03-03T12:35:24;14.00;;;12.87;;
908;SDS011;441;51.192;6.788;2023-03-03T12:37:56;14.63;;;13.67;;
908;SDS011;441;51.192;6.788;2023-03-03T12:40:33;12.10;;;11.30;;
908;SDS011;441;51.192;6.788;2023-03-03T12:43:07;12.40;;;11.70;;
908;SDS011;441;51.192;6.788;2023-03-03T12:45:46;13.30;;;12.30;;
908;SDS011;441;51.192;6.788;2023-03-03T12:48:22;12.67;;;11.83;;
908;SDS011;441;51.192;6.788;2023-03-03T12:50:59;14.10;;;12.80;;
908;SDS011;441;51.192;6.788;2023-03-03T12:53:38;14.23;;;13.23;;
908;SDS011;441;51.192;6.788;2023-03-03T12:56:15;15.20;;;14.10;;
908;SDS011;441;51.192;6.788;2023-03-03T12:58:49;13.80;;;12.87;;
908;SDS011;441;51.192;6.788;2023-03-03T13:01:27;14.37;;;13.50;;
908;SDS011;441;51.192;6.788;2023-03-03T13:04:02;13.13;;;12.33;;
908;SDS011;441;51.192;6.788;2023-03-03T13:06:37;12.50;;;11.57;;
908;SDS011;441;51.192;6.788;2023-03-03T13:09:12;16.67;;;15.37;;
908;SDS011;441;51.192;6.788;2023-03-03T13:14:49;12.90;;;12.00;;
908;SDS011;441;51.192;6.788;2023-03-03T13:17:21;14.97;;;14.07;;
908;SDS011;441;51.192;6.788;2023-03-03T13:19:53;14.37;;;13.43;;
908;SDS011;441;51.192;6.788;2023-03-03T13:22:37;13.60;;;12.67;;
908;SDS011;441;51.192;6.788;2023-03-03T13:25:16;14.20;;;13.20;;
908;SDS011;441;51.192;6.788;2023-03-03T13:27:58;13.17;;;12.17;;
908;SDS011;441;51.192;6.788;2023-03-03T13:30:29;13.70;;;12.83;;
908;SDS011;441;51.192;6.788;2023-03-03T13:33:00;13.13;;;12.30;;
908;SDS011;441;51.192;6.788;2023-03-03T13:35:36;13.70;;;12.73;;
908;SDS011;441;51.192;6.788;2023-03-03T13:38:10;14.83;;;13.77;;
908;SDS011;441;51.192;6.788;2023-03-03T13:40:41;14.33;;;13.33;;
908;SDS011;441;51.192;6.788;2023-03-03T13:43:11;13.73;;;12.80;;
908;SDS011;441;51.192;6.788;2023-03-03T13:45:45;13.77;;;12.63;;
908;SDS011;441;51.192;6.788;2023-03-03T13:48:26;14.10;;;13.23;;
908;SDS011;441;51.192;6.788;2023-03-03T13:51:02;12.30;;;11.40;;
908;SDS011;441;51.192;6.788;2023-03-03T13:53:40;12.00;;;11.30;;
908;SDS011;441;51.192;6.788;2023-03-03T13:56:25;12.30;;;11.37;;
908;SDS011;441;51.192;6.788;2023-03-03T13:59:05;13.27;;;12.27;;
908;SDS011;441;51.192;6.788;2023-03-03T14:01:43;14.33;;;13.27;;
908;SDS011;441;51.192;6.788;2023-03-03T14:04:24;12.43;;;11.60;;
908;SDS011;441;51.192;6.788;2023-03-03T14:07:06;13.80;;;12.70;;
908;SDS011;441;51.192;6.788;2023-03-03T14:09:45;14.50;;;13.40;;
908;SDS011;441;51.192;6.788;2023-03-03T14:12:24;15.93;;;14.83;;
908;SDS011;441;51.192;6.788;2023-03-03T14:14:56;14.53;;;13.63;;
908;SDS011;441;51.192;6.788;2023-03-03T14:17:31;15.37;;;14.27;;
908;SDS011;441;51.192;6.788;2023-03-03T14:20:11;13.87;;;13.03;;
908;SDS011;441;51.192;6.788;2023-03-03T14:22:44;14.50;;;13.57;;
908;SDS011;441;51.192;6.788;2023-03-03T14:25:18;15.47;;;14.37;;
908;SDS011;441;51.192;6.788;2023-03-03T14:28:03;14.90;;;13.90;;
908;SDS011;441;51.192;6.788;2023-03-03T14:30:39;14.07;;;13.07;;
908;SDS011;441;51.192;6.788;2023-03-03T14:33:15;14.80;;;13.93;;
908;SDS011;441;51.192;6.788;2023-03-03T14:35:47;14.83;;;13.83;;
908;SDS011;441;51.192;6.788;2023-03-03T14:38:17;13.95;;;12.95;;
908;SDS011;441;51.192;6.788;2023-03-03T14:40:48;14.93;;;14.00;;
908;SDS011;441;51.192;6.788;2023-03-03T14:43:32;20.90;;;19.40;;
908;SDS011;441;51.192;6.788;2023-03-03T14:46:16;16.93;;;15.60;;
908;SDS011;441;51.192;6.788;2023-03-03T14:49:04;15.20;;;14.27;;
908;SDS011;441;51.192;6.788;2023-03-03T14:51:39;16.60;;;15.30;;
908;SDS011;441;51.192;6.788;2023-03-03T14:54:13;15.80;;;14.70;;
908;SDS011;441;51.192;6.788;2023-03-03T14:56:59;14.63;;;13.30;;
908;SDS011;441;51.192;6.788;2023-03-03T14:59:31;17.07;;;15.80;;
908;SDS011;441;51.192;6.788;2023-03-03T15:05:19;17.00;;;15.90;;
908;SDS011;441;51.192;6.788;2023-03-03T15:07:48;18.33;;;16.83;;
908;SDS011;441;51.192;6.788;2023-03-03T15:10:29;17.07;;;15.80;;
908;SDS011;441;51.192;6.788;2023-03-03T15:12:59;18.27;;;16.35;;
908;SDS011;441;51.192;6.788;2023-03-03T15:15:59;17.70;;;16.50;;
908;SDS011;441;51.192;6.788;2023-03-03T15:18:29;17.40;;;15.73;;
908;SDS011;441;51.192;6.788;2023-03-03T15:20:58;18.60;;;17.20;;
908;SDS011;441;51.192;6.788;2023-03-03T15:23:38;16.67;;;15.38;;
908;SDS011;441;51.192;6.788;2023-03-03T15:26:18;17.53;;;16.23;;
908;SDS011;441;51.192;6.788;2023-03-03T15:28:53;16.53;;;15.23;;
908;SDS011;441;51.192;6.788;2023-03-03T15:31:30;16.60;;;15.47;;
908;SDS011;441;51.192;6.788;2023-03-03T15:34:19;16.10;;;14.77;;
908;SDS011;441;51.192;6.788;2023-03-03T15:36:52;14.63;;;13.63;;
908;SDS011;441;51.192;6.788;2023-03-03T15:39:27;15.37;;;14.30;;
908;SDS011;441;51.192;6.788;2023-03-03T15:42:01;14.40;;;13.20;;
908;SDS011;441;51.192;6.788;2023-03-03T15:44:39;14.63;;;13.47;;
908;SDS011;441;51.192;6.788;2023-03-03T15:47:26;13.73;;;12.53;;
908;SDS011;441;51.192;6.788;2023-03-03T15:50:25;13.47;;;12.60;;
908;SDS011;441;51.192;6.788;2023-03-03T15:53:03;14.50;;;13.10;;
908;SDS011;441;51.192;6.788;2023-03-03T15:55:43;13.73;;;12.93;;
908;SDS011;441;51.192;6.788;2023-03-03T15:58:23;14.00;;;13.20;;
908;SDS011;441;51.192;6.788;2023-03-03T16:01:12;14.07;;;12.93;;
908;SDS011;441;51.192;6.788;2023-03-03T16:03:48;14.63;;;13.63;;
908;SDS011;441;51.192;6.788;2023-03-03T16:06:21;14.27;;;13.27;;
908;SDS011;441;51.192;6.788;2023-03-03T16:08:56;15.87;;;14.77;;
908;SDS011;441;51.192;6.788;2023-03-03T16:11:31;14.87;;;13.43;;
908;SDS011;441;51.192;6.788;2023-03-03T16:14:10;13.97;;;13.07;;
908;SDS011;441;51.192;6.788;2023-03-03T16:16:53;13.73;;;12.83;;
908;SDS011;441;51.192;6.788;2023-03-03T16:19:27;13.30;;;12.33;;
908;SDS011;441;51.192;6.788;2023-03-03T16:22:08;12.70;;;11.93;;
908;SDS011;441;51.192;6.788;2023-03-03T16:24:52;11.80;;;11.20;;
908;SDS011;441;51.192;6.788;2023-03-03T16:27:31;12.73;;;12.03;;